Webcam

2021/04/22 18:50 EBBR 221850Z 02006KT CAVOK 08/02 Q1026 NOSIG

Webcam

--- Refresh now ---